createdAt,value
2023-05-04T00:00:49.036Z,54.31
2023-05-04T00:01:51.836Z,54.46
2023-05-04T00:02:54.802Z,54.28
2023-05-04T00:03:58.381Z,54.36
2023-05-04T00:05:00.955Z,54.20
2023-05-04T00:06:03.529Z,54.25
2023-05-04T00:07:05.860Z,54.24
2023-05-04T00:08:08.103Z,54.31
2023-05-04T00:09:15.288Z,54.39
2023-05-04T00:10:17.854Z,54.44
2023-05-04T00:11:20.226Z,54.39
2023-05-04T00:12:22.605Z,54.44
2023-05-04T00:13:25.244Z,54.30
2023-05-04T00:14:27.519Z,54.27
2023-05-04T00:15:30.687Z,54.35
2023-05-04T00:16:33.203Z,54.32
2023-05-04T00:17:35.501Z,54.34
2023-05-04T00:18:37.975Z,54.34
2023-05-04T00:19:42.404Z,54.34
2023-05-04T00:20:44.816Z,54.43
2023-05-04T00:21:47.264Z,54.31
2023-05-04T00:22:49.571Z,54.47
2023-05-04T00:23:51.873Z,54.55
2023-05-04T00:24:54.168Z,54.53
2023-05-04T00:25:58.968Z,54.59
2023-05-04T00:27:01.273Z,54.80
2023-05-04T00:28:04.011Z,54.66
2023-05-04T00:29:06.372Z,54.88
2023-05-04T00:30:09.173Z,54.91
2023-05-04T00:31:11.438Z,54.91
2023-05-04T00:32:13.868Z,54.97
2023-05-04T00:33:17.016Z,55.11
2023-05-04T00:34:19.603Z,55.33
2023-05-04T00:35:21.844Z,55.32
2023-05-04T00:36:25.010Z,55.55
2023-05-04T00:37:27.301Z,55.62
2023-05-04T00:38:29.721Z,55.51
2023-05-04T00:39:32.212Z,55.73
2023-05-04T00:40:35.363Z,55.86
2023-05-04T00:41:37.841Z,55.89
2023-05-04T00:42:40.188Z,56.08
2023-05-04T00:43:42.561Z,56.15
2023-05-04T00:44:45.365Z,56.14
2023-05-04T00:45:48.170Z,56.32
2023-05-04T00:46:53.236Z,56.36
2023-05-04T00:47:56.205Z,56.49
2023-05-04T00:48:59.991Z,56.53
2023-05-04T00:50:03.152Z,56.55
2023-05-04T00:51:06.876Z,56.73
2023-05-04T00:52:10.789Z,56.74
2023-05-04T00:53:13.113Z,56.79
2023-05-04T00:54:18.233Z,56.66
2023-05-04T00:55:20.941Z,56.61
2023-05-04T00:56:24.734Z,56.67
2023-05-04T00:57:27.101Z,56.71
2023-05-04T00:58:31.498Z,56.69
2023-05-04T00:59:33.802Z,56.66
2023-05-04T01:00:37.288Z,56.73
2023-05-04T01:01:40.786Z,56.80
2023-05-04T01:02:43.388Z,56.88
2023-05-04T01:03:45.853Z,57.04
2023-05-04T01:04:48.589Z,56.97
2023-05-04T01:06:08.969Z,57.00
2023-05-04T01:07:27.093Z,56.86
2023-05-04T01:08:33.120Z,57.04
2023-05-04T01:09:39.544Z,56.97
2023-05-04T01:10:53.705Z,57.05
2023-05-04T01:12:06.434Z,57.13
2023-05-04T01:13:13.232Z,57.22
2023-05-04T01:14:20.339Z,57.16
2023-05-04T01:15:22.963Z,57.07
2023-05-04T01:16:25.297Z,57.16
2023-05-04T01:17:27.694Z,57.19
2023-05-04T01:18:30.415Z,57.08
2023-05-04T01:19:33.125Z,57.19
2023-05-04T01:20:36.022Z,57.25
2023-05-04T01:21:39.228Z,57.24
2023-05-04T01:22:41.930Z,57.25
2023-05-04T01:23:44.276Z,57.43
2023-05-04T01:24:46.841Z,57.50
2023-05-04T01:26:16.962Z,57.38
2023-05-04T01:27:37.858Z,57.35
2023-05-04T01:28:50.457Z,57.63
2023-05-04T01:29:58.505Z,57.55
2023-05-04T01:31:06.269Z,57.55
2023-05-04T01:32:08.976Z,57.55
2023-05-04T01:33:12.428Z,57.88
2023-05-04T01:34:16.726Z,57.66
2023-05-04T01:35:20.117Z,57.49
2023-05-04T01:36:23.398Z,57.59
2023-05-04T01:37:25.915Z,57.72
2023-05-04T01:38:28.751Z,57.59
2023-05-04T01:39:31.163Z,57.67
2023-05-04T01:40:33.793Z,57.75
2023-05-04T01:41:36.947Z,57.81
2023-05-04T01:42:39.331Z,57.93
2023-05-04T01:43:42.157Z,57.78
2023-05-04T01:44:44.584Z,57.74
2023-05-04T01:45:47.232Z,57.73
2023-05-04T01:46:49.564Z,57.88
2023-05-04T01:47:51.876Z,57.88
2023-05-04T01:48:54.521Z,57.86
2023-05-04T01:49:57.955Z,57.84
2023-05-04T01:51:01.848Z,58.00
2023-05-04T01:52:04.224Z,57.77
2023-05-04T01:53:06.546Z,57.77
2023-05-04T01:54:08.827Z,57.82
2023-05-04T01:55:11.108Z,57.70
2023-05-04T01:56:13.425Z,57.69
2023-05-04T01:57:16.027Z,57.59
2023-05-04T01:58:21.616Z,57.68
2023-05-04T01:59:23.904Z,57.69
2023-05-04T02:00:27.330Z,57.56
2023-05-04T02:01:29.767Z,57.70
2023-05-04T02:02:32.224Z,57.71
2023-05-04T02:03:34.620Z,57.66
2023-05-04T02:04:37.340Z,57.61
2023-05-04T02:05:39.638Z,57.55
2023-05-04T02:06:41.965Z,57.63
2023-05-04T02:07:45.284Z,57.55
2023-05-04T02:08:47.952Z,57.59
2023-05-04T02:09:50.204Z,57.71
2023-05-04T02:10:52.855Z,57.55
2023-05-04T02:11:55.382Z,57.64
2023-05-04T02:12:57.893Z,57.68
2023-05-04T02:14:01.229Z,57.66
2023-05-04T02:15:04.079Z,57.65
2023-05-04T02:16:07.039Z,57.65
2023-05-04T02:17:09.450Z,57.76
2023-05-04T02:18:13.770Z,57.56
2023-05-04T02:19:16.217Z,57.61
2023-05-04T02:20:18.806Z,57.69
2023-05-04T02:21:21.748Z,57.75
2023-05-04T02:22:24.547Z,57.71
2023-05-04T02:23:28.447Z,57.69
2023-05-04T02:24:30.843Z,57.64
2023-05-04T02:25:33.917Z,57.60
2023-05-04T02:26:39.274Z,57.75
2023-05-04T02:27:41.543Z,57.69
2023-05-04T02:28:43.965Z,57.73
2023-05-04T02:29:46.513Z,57.89
2023-05-04T02:30:48.814Z,57.81
2023-05-04T02:31:51.180Z,57.88
2023-05-04T02:32:53.643Z,57.83
2023-05-04T02:33:57.888Z,57.86
2023-05-04T02:35:00.441Z,57.78
2023-05-04T02:36:04.602Z,57.99
2023-05-04T02:37:07.592Z,58.03
2023-05-04T02:38:10.606Z,58.13
2023-05-04T02:39:15.380Z,57.96
2023-05-04T02:40:18.095Z,57.98
2023-05-04T02:41:21.010Z,58.00
2023-05-04T02:42:23.371Z,58.02
2023-05-04T02:43:26.076Z,57.99
2023-05-04T02:44:28.670Z,57.90
2023-05-04T02:45:31.007Z,57.73
2023-05-04T02:46:33.280Z,57.75
2023-05-04T02:47:36.743Z,57.95
2023-05-04T02:48:39.397Z,57.89
2023-05-04T02:49:41.709Z,57.70
2023-05-04T02:50:44.865Z,57.86
2023-05-04T02:51:47.605Z,57.94
2023-05-04T02:52:49.867Z,57.63
2023-05-04T02:53:52.652Z,57.81
2023-05-04T02:54:55.006Z,57.56
2023-05-04T02:55:57.355Z,57.54
2023-05-04T02:56:59.679Z,57.73
2023-05-04T02:58:01.952Z,57.77
2023-05-04T02:59:05.471Z,57.87
2023-05-04T03:00:08.616Z,57.76
2023-05-04T03:01:10.951Z,57.74
2023-05-04T03:02:13.225Z,57.71
2023-05-04T03:03:15.507Z,57.74
2023-05-04T03:04:17.913Z,57.74
2023-05-04T03:05:22.787Z,57.79
2023-05-04T03:06:25.010Z,57.86
2023-05-04T03:07:28.643Z,57.89
2023-05-04T03:08:31.229Z,57.78
2023-05-04T03:09:33.748Z,57.65
2023-05-04T03:10:37.103Z,57.76
2023-05-04T03:11:41.767Z,57.68
2023-05-04T03:12:45.326Z,57.72
2023-05-04T03:13:48.198Z,57.80
2023-05-04T03:14:51.007Z,57.67
2023-05-04T03:15:54.850Z,57.64
2023-05-04T03:16:57.815Z,57.66
2023-05-04T03:18:00.327Z,57.57
2023-05-04T03:19:02.961Z,57.74
2023-05-04T03:20:06.136Z,57.78
2023-05-04T03:21:09.012Z,57.78
2023-05-04T03:22:11.513Z,57.67
2023-05-04T03:23:14.605Z,57.63
2023-05-04T03:24:18.270Z,57.68
2023-05-04T03:25:22.188Z,57.68
2023-05-04T03:26:25.426Z,57.67
2023-05-04T03:27:28.426Z,57.67
2023-05-04T03:28:30.863Z,57.55
2023-05-04T03:29:33.530Z,57.63
2023-05-04T03:30:36.482Z,57.55
2023-05-04T03:31:39.533Z,57.63
2023-05-04T03:32:42.116Z,57.67
2023-05-04T03:33:44.479Z,57.61
2023-05-04T03:34:47.596Z,57.59
2023-05-04T03:35:51.065Z,57.63
2023-05-04T03:36:53.940Z,57.60
2023-05-04T03:37:56.381Z,57.71
2023-05-04T03:38:59.135Z,57.73
2023-05-04T03:40:01.879Z,57.62
2023-05-04T03:41:04.455Z,57.73
2023-05-04T03:42:06.786Z,57.60
2023-05-04T03:43:09.146Z,57.62
2023-05-04T03:44:12.152Z,57.73
2023-05-04T03:45:14.697Z,57.78
2023-05-04T03:46:17.184Z,57.69
2023-05-04T03:47:21.318Z,57.71
2023-05-04T03:48:23.623Z,57.88
2023-05-04T03:49:26.441Z,57.74
2023-05-04T03:50:28.701Z,57.93
2023-05-04T03:51:31.059Z,57.83
2023-05-04T03:52:33.341Z,57.79
2023-05-04T03:53:36.002Z,57.80
2023-05-04T03:54:38.334Z,57.89
2023-05-04T03:55:40.630Z,58.04
2023-05-04T03:56:42.944Z,58.01
2023-05-04T03:57:46.599Z,57.89
2023-05-04T03:58:48.989Z,57.88
2023-05-04T03:59:57.573Z,58.07
2023-05-04T04:01:02.436Z,58.11
2023-05-04T04:02:04.774Z,58.01
2023-05-04T04:03:07.318Z,58.25
2023-05-04T04:04:10.357Z,58.15
2023-05-04T04:05:12.638Z,58.15
2023-05-04T04:06:16.049Z,58.20
2023-05-04T04:07:18.462Z,58.09
2023-05-04T04:08:20.920Z,58.07
2023-05-04T04:09:23.866Z,58.31
2023-05-04T04:10:27.262Z,58.30
2023-05-04T04:11:31.134Z,58.33
2023-05-04T04:12:33.548Z,58.36
2023-05-04T04:13:37.299Z,58.38
2023-05-04T04:14:39.556Z,58.47
2023-05-04T04:15:45.012Z,58.20
2023-05-04T04:16:47.408Z,58.43
2023-05-04T04:17:49.975Z,58.27
2023-05-04T04:18:52.328Z,58.39
2023-05-04T04:19:54.987Z,58.46
2023-05-04T04:20:57.291Z,58.43
2023-05-04T04:22:00.303Z,58.39
2023-05-04T04:23:04.268Z,58.56
2023-05-04T04:24:08.052Z,58.69
2023-05-04T04:25:10.729Z,58.57
2023-05-04T04:26:13.497Z,58.81
2023-05-04T04:27:16.035Z,58.91
2023-05-04T04:28:18.384Z,58.80
2023-05-04T04:29:20.629Z,58.87
2023-05-04T04:30:23.143Z,58.68
2023-05-04T04:31:25.653Z,58.73
2023-05-04T04:32:31.049Z,58.94
2023-05-04T04:33:34.878Z,58.83
2023-05-04T04:34:37.739Z,58.89
2023-05-04T04:35:43.107Z,58.96
2023-05-04T04:36:45.534Z,58.83
2023-05-04T04:37:48.893Z,58.83
2023-05-04T04:38:51.606Z,58.82
2023-05-04T04:39:54.089Z,58.79
2023-05-04T04:40:56.812Z,58.70
2023-05-04T04:41:59.125Z,58.69
2023-05-04T04:43:02.037Z,58.70
2023-05-04T04:44:05.906Z,58.65
2023-05-04T04:45:10.341Z,58.57
2023-05-04T04:46:12.833Z,58.54
2023-05-04T04:47:16.865Z,58.43
2023-05-04T04:48:21.889Z,58.23
2023-05-04T04:49:26.231Z,58.23
2023-05-04T04:50:29.835Z,58.08
2023-05-04T04:51:32.842Z,57.90
2023-05-04T04:52:35.151Z,57.82
2023-05-04T04:53:37.465Z,57.64
2023-05-04T04:54:39.727Z,57.61
2023-05-04T04:55:42.221Z,57.29
2023-05-04T04:56:46.302Z,57.28
2023-05-04T04:57:48.564Z,56.95
2023-05-04T04:58:51.198Z,56.81
2023-05-04T04:59:56.250Z,56.50
2023-05-04T05:00:58.709Z,56.35
2023-05-04T05:02:02.059Z,56.10
2023-05-04T05:03:04.993Z,55.82
2023-05-04T05:04:07.947Z,55.65
2023-05-04T05:05:13.621Z,55.42
2023-05-04T05:06:16.155Z,55.30
2023-05-04T05:07:18.545Z,55.11
2023-05-04T05:08:20.843Z,55.02
2023-05-04T05:09:23.682Z,54.74
2023-05-04T05:10:26.291Z,54.46
2023-05-04T05:11:28.570Z,54.20
2023-05-04T05:12:31.234Z,53.96
2023-05-04T05:13:33.848Z,53.85
2023-05-04T05:14:36.387Z,53.80
2023-05-04T05:15:39.143Z,53.65
2023-05-04T05:16:41.519Z,53.20
2023-05-04T05:17:44.718Z,53.44
2023-05-04T05:18:47.050Z,53.33
2023-05-04T05:19:50.304Z,53.14
2023-05-04T05:20:52.623Z,52.89
2023-05-04T05:21:55.161Z,52.65
2023-05-04T05:22:57.655Z,52.31
2023-05-04T05:23:59.897Z,52.07
2023-05-04T05:25:02.292Z,51.82
2023-05-04T05:26:04.566Z,51.76
2023-05-04T05:27:06.810Z,51.62
2023-05-04T05:28:09.175Z,51.49
2023-05-04T05:29:11.471Z,51.19
2023-05-04T05:30:14.103Z,51.09
2023-05-04T05:31:16.762Z,50.86
2023-05-04T05:32:19.109Z,50.43
2023-05-04T05:33:21.381Z,49.83
2023-05-04T05:34:23.619Z,49.39
2023-05-04T05:35:26.078Z,49.39
2023-05-04T05:36:28.518Z,49.27
2023-05-04T05:37:31.758Z,49.00
2023-05-04T05:38:34.033Z,49.39
2023-05-04T05:39:37.315Z,49.13
2023-05-04T05:40:39.619Z,49.15
2023-05-04T05:41:42.272Z,48.76
2023-05-04T05:42:45.275Z,48.56
2023-05-04T05:43:48.063Z,48.53
2023-05-04T05:44:51.266Z,48.09
2023-05-04T05:45:54.666Z,47.68
2023-05-04T05:46:57.909Z,48.05
2023-05-04T05:48:00.296Z,47.69
2023-05-04T05:49:02.574Z,47.33
2023-05-04T05:50:07.801Z,46.87
2023-05-04T05:51:12.592Z,47.06
2023-05-04T05:52:15.015Z,46.78
2023-05-04T05:53:17.296Z,46.58
2023-05-04T05:54:21.913Z,46.23
2023-05-04T05:55:24.207Z,46.18
2023-05-04T05:56:26.470Z,46.09
2023-05-04T05:57:29.308Z,45.54
2023-05-04T05:58:31.671Z,45.54
2023-05-04T05:59:34.056Z,45.26
2023-05-04T06:00:36.699Z,45.58
2023-05-04T06:01:38.974Z,45.07
2023-05-04T06:02:41.346Z,44.80
2023-05-04T06:03:43.742Z,44.21
2023-05-04T06:04:46.252Z,44.12
2023-05-04T06:05:48.564Z,43.92
2023-05-04T06:06:51.603Z,44.05
2023-05-04T06:07:53.891Z,44.09
2023-05-04T06:08:56.175Z,43.62
2023-05-04T06:09:58.552Z,43.50
2023-05-04T06:11:00.870Z,43.01
2023-05-04T06:12:05.067Z,42.81
2023-05-04T06:13:07.375Z,43.11
2023-05-04T06:14:09.717Z,42.96
2023-05-04T06:15:13.823Z,42.92
2023-05-04T06:16:16.390Z,42.28
2023-05-04T06:17:19.347Z,42.13
2023-05-04T06:18:22.110Z,41.92
2023-05-04T06:19:24.966Z,41.83
2023-05-04T06:20:27.427Z,41.68
2023-05-04T06:21:29.774Z,41.63
2023-05-04T06:22:32.073Z,41.14
2023-05-04T06:23:34.679Z,40.99
2023-05-04T06:24:37.915Z,40.75
2023-05-04T06:25:42.046Z,40.55
2023-05-04T06:26:44.343Z,40.36
2023-05-04T06:27:46.888Z,40.37
2023-05-04T06:28:49.127Z,40.18
2023-05-04T06:29:52.163Z,40.04
2023-05-04T06:30:54.400Z,39.89
2023-05-04T06:31:56.922Z,40.25
2023-05-04T06:32:59.577Z,40.18
2023-05-04T06:34:02.324Z,39.99
2023-05-04T06:35:06.403Z,40.13
2023-05-04T06:36:08.814Z,39.52
2023-05-04T06:37:13.995Z,39.28
2023-05-04T06:38:17.434Z,38.95
2023-05-04T06:39:20.931Z,38.88
2023-05-04T06:40:23.261Z,39.32
2023-05-04T06:41:25.783Z,39.50
2023-05-04T06:42:31.962Z,39.23
2023-05-04T06:43:34.466Z,38.44
2023-05-04T06:44:38.135Z,38.32
2023-05-04T06:45:40.477Z,38.74
2023-05-04T06:46:42.885Z,38.55
2023-05-04T06:47:45.152Z,38.21
2023-05-04T06:48:47.546Z,38.40
2023-05-04T06:49:50.663Z,37.91
2023-05-04T06:50:53.699Z,37.95
2023-05-04T06:51:56.534Z,37.95
2023-05-04T06:53:18.674Z,38.03
2023-05-04T06:54:20.963Z,37.74
2023-05-04T06:55:23.216Z,37.58
2023-05-04T06:56:25.475Z,37.33
2023-05-04T06:57:29.624Z,36.69
2023-05-04T06:58:33.366Z,36.79
2023-05-04T06:59:35.650Z,36.93
2023-05-04T07:00:39.271Z,36.84
2023-05-04T07:01:41.735Z,36.48
2023-05-04T07:02:44.217Z,36.46
2023-05-04T07:03:46.584Z,36.09
2023-05-04T07:04:50.185Z,36.08
2023-05-04T07:05:52.525Z,35.73
2023-05-04T07:06:55.297Z,35.78
2023-05-04T07:07:59.212Z,35.50
2023-05-04T07:09:01.716Z,35.59
2023-05-04T07:10:04.700Z,35.15
2023-05-04T07:11:07.447Z,35.26
2023-05-04T07:12:10.727Z,34.88
2023-05-04T07:13:14.801Z,34.68
2023-05-04T07:14:18.513Z,34.69
2023-05-04T07:15:21.160Z,34.36
2023-05-04T07:16:23.470Z,34.50
2023-05-04T07:17:26.107Z,34.24
2023-05-04T07:18:28.389Z,33.77
2023-05-04T07:19:30.685Z,33.86
2023-05-04T07:20:33.204Z,33.47
2023-05-04T07:21:35.668Z,33.66
2023-05-04T07:22:38.251Z,33.42
2023-05-04T07:23:40.542Z,33.70
2023-05-04T07:24:42.816Z,33.43
2023-05-04T07:25:45.158Z,33.32
2023-05-04T07:26:47.435Z,32.93
2023-05-04T07:27:51.548Z,32.67
2023-05-04T07:28:54.050Z,32.84
2023-05-04T07:29:56.800Z,32.61
2023-05-04T07:31:00.810Z,32.77
2023-05-04T07:32:03.331Z,32.17
2023-05-04T07:33:05.655Z,31.88
2023-05-04T07:34:08.028Z,31.50
2023-05-04T07:35:10.914Z,31.05
2023-05-04T07:36:13.292Z,31.04
2023-05-04T07:37:16.186Z,31.38
2023-05-04T07:38:18.603Z,31.06
2023-05-04T07:39:21.334Z,31.46
2023-05-04T07:40:23.730Z,31.40
2023-05-04T07:41:26.592Z,30.51
2023-05-04T07:42:29.217Z,30.39
2023-05-04T07:43:31.690Z,30.51
2023-05-04T07:44:34.155Z,30.20
2023-05-04T07:45:36.706Z,30.58
2023-05-04T07:46:39.301Z,30.17
2023-05-04T07:47:41.636Z,30.42
2023-05-04T07:48:43.997Z,30.26
2023-05-04T07:49:46.566Z,30.52
2023-05-04T07:50:49.230Z,30.61
2023-05-04T07:51:51.626Z,30.24
2023-05-04T07:52:53.919Z,30.55
2023-05-04T07:53:56.809Z,30.53
2023-05-04T07:54:59.208Z,30.16
2023-05-04T07:56:08.719Z,30.29
2023-05-04T07:57:11.188Z,29.86
2023-05-04T07:58:15.385Z,29.86
2023-05-04T07:59:19.013Z,29.38
2023-05-04T08:00:21.684Z,29.64
2023-05-04T08:01:24.890Z,29.63
2023-05-04T08:02:27.329Z,29.49
2023-05-04T08:03:30.943Z,29.40
2023-05-04T08:04:33.259Z,29.60
2023-05-04T08:05:35.744Z,28.98
2023-05-04T08:06:42.360Z,28.92
2023-05-04T08:07:45.142Z,29.07
2023-05-04T08:08:51.487Z,29.04
2023-05-04T08:09:57.065Z,28.81
2023-05-04T08:11:12.007Z,29.35
2023-05-04T08:12:21.405Z,29.21
2023-05-04T08:13:25.868Z,29.08
2023-05-04T08:14:28.441Z,29.13
2023-05-04T08:15:30.902Z,29.19
2023-05-04T08:16:33.378Z,29.06
2023-05-04T08:17:38.265Z,28.83
2023-05-04T08:18:40.662Z,28.94
2023-05-04T08:19:43.046Z,28.67
2023-05-04T08:20:55.090Z,28.52
2023-05-04T08:21:57.464Z,28.45
2023-05-04T08:23:00.248Z,28.53
2023-05-04T08:24:02.960Z,28.59
2023-05-04T08:25:05.929Z,28.32
2023-05-04T08:26:08.646Z,28.39
2023-05-04T08:27:14.511Z,27.69
2023-05-04T08:28:16.996Z,28.03
2023-05-04T08:29:19.280Z,28.32
2023-05-04T08:30:21.785Z,28.75
2023-05-04T08:31:24.107Z,28.85
2023-05-04T08:32:27.203Z,28.14
2023-05-04T08:33:29.606Z,27.68
2023-05-04T08:34:31.914Z,27.66
2023-05-04T08:35:34.213Z,27.48
2023-05-04T08:36:36.776Z,27.79
2023-05-04T08:37:39.127Z,27.87
2023-05-04T08:38:41.852Z,27.88
2023-05-04T08:39:44.674Z,27.49
2023-05-04T08:40:48.702Z,26.83
2023-05-04T08:41:52.829Z,27.18
2023-05-04T08:42:55.403Z,26.75
2023-05-04T08:44:00.308Z,26.81
2023-05-04T08:45:02.835Z,26.93
2023-05-04T08:46:06.988Z,26.54
2023-05-04T08:47:09.452Z,26.47
2023-05-04T08:48:11.832Z,25.99
2023-05-04T08:49:14.232Z,25.69
2023-05-04T08:50:16.496Z,25.35
2023-05-04T08:51:19.363Z,25.40
2023-05-04T08:52:25.737Z,25.33
2023-05-04T08:53:29.338Z,25.76
2023-05-04T08:54:32.179Z,25.65
2023-05-04T08:55:37.863Z,25.32
2023-05-04T08:56:40.824Z,25.58
2023-05-04T08:57:44.328Z,25.58
2023-05-04T08:58:51.590Z,25.22
2023-05-04T08:59:55.615Z,25.46
2023-05-04T09:00:59.609Z,25.54
2023-05-04T09:02:02.902Z,25.74
2023-05-04T09:03:07.906Z,25.28
2023-05-04T09:04:11.080Z,25.52
2023-05-04T09:05:13.795Z,25.59
2023-05-04T09:06:16.178Z,25.46
2023-05-04T09:07:22.407Z,24.90
2023-05-04T09:08:24.873Z,24.91
2023-05-04T09:09:29.345Z,24.96
2023-05-04T09:10:31.746Z,25.02
2023-05-04T09:11:34.252Z,24.78
2023-05-04T09:12:38.182Z,25.43
2023-05-04T09:13:42.896Z,25.58
2023-05-04T09:14:46.959Z,25.53
2023-05-04T09:15:56.145Z,25.37
2023-05-04T09:16:58.751Z,25.22
2023-05-04T09:18:05.720Z,25.15
2023-05-04T09:19:18.946Z,25.44
2023-05-04T09:20:21.680Z,25.08
2023-05-04T09:21:31.175Z,25.23
2023-05-04T09:22:33.883Z,25.02
2023-05-04T09:23:51.673Z,25.13
2023-05-04T09:24:54.765Z,24.92
2023-05-04T09:25:57.073Z,25.24
2023-05-04T09:27:10.142Z,25.42
2023-05-04T09:28:13.896Z,25.41
2023-05-04T09:29:16.299Z,25.25
2023-05-04T09:30:22.148Z,25.44
2023-05-04T09:31:25.294Z,25.61
2023-05-04T09:32:28.838Z,25.52
2023-05-04T09:33:32.277Z,25.51
2023-05-04T09:34:34.743Z,25.10
2023-05-04T09:35:40.859Z,25.05
2023-05-04T09:36:43.361Z,25.02
2023-05-04T09:37:49.074Z,25.44
2023-05-04T09:38:51.429Z,25.80
2023-05-04T09:40:00.353Z,25.66
2023-05-04T09:41:02.688Z,25.66
2023-05-04T09:42:05.193Z,25.12
2023-05-04T09:43:08.701Z,25.00
2023-05-04T09:44:25.943Z,25.31
2023-05-04T09:45:40.412Z,24.98
2023-05-04T09:46:43.049Z,24.45
2023-05-04T09:47:46.073Z,24.83
2023-05-04T09:48:58.127Z,25.04
2023-05-04T09:50:19.867Z,24.91
2023-05-04T09:51:27.817Z,24.59
2023-05-04T09:52:33.093Z,24.55
2023-05-04T09:53:40.788Z,24.14
2023-05-04T09:54:45.876Z,24.14
2023-05-04T09:56:02.642Z,24.31
2023-05-04T09:57:13.295Z,24.58
2023-05-04T09:58:16.969Z,24.89
2023-05-04T09:59:22.017Z,24.83
2023-05-04T10:00:24.562Z,24.73
2023-05-04T10:01:30.234Z,24.82
2023-05-04T10:02:32.806Z,24.50
2023-05-04T10:03:36.787Z,24.94
2023-05-04T10:04:39.754Z,25.20
2023-05-04T10:05:42.737Z,25.25
2023-05-04T10:06:46.091Z,25.00
2023-05-04T10:07:48.676Z,25.03
2023-05-04T10:08:52.101Z,25.21
2023-05-04T10:09:56.347Z,25.24
2023-05-04T10:10:58.925Z,25.00
2023-05-04T10:12:03.819Z,24.40
2023-05-04T10:13:06.772Z,24.63
2023-05-04T10:14:09.605Z,24.54
2023-05-04T10:15:12.752Z,24.71
2023-05-04T10:16:26.749Z,24.68
2023-05-04T10:17:44.203Z,24.84
2023-05-04T10:19:10.117Z,25.06
2023-05-04T10:20:23.437Z,24.73
2023-05-04T10:21:47.570Z,24.69
2023-05-04T10:23:28.827Z,25.06
2023-05-04T10:24:57.888Z,24.55
2023-05-04T10:26:22.964Z,24.42
2023-05-04T10:27:45.713Z,24.57
2023-05-04T10:28:57.351Z,24.72
2023-05-04T10:30:01.750Z,24.44
2023-05-04T10:31:06.429Z,24.49
2023-05-04T10:32:22.429Z,24.87
2023-05-04T10:33:26.487Z,24.59
2023-05-04T10:34:34.493Z,24.70
2023-05-04T10:35:38.502Z,24.41
2023-05-04T10:36:42.512Z,24.30
2023-05-04T10:37:54.718Z,23.85
2023-05-04T10:38:57.134Z,23.74
2023-05-04T10:39:59.543Z,23.46
2023-05-04T10:41:13.236Z,23.63
2023-05-04T10:42:15.626Z,23.34
2023-05-04T10:43:24.731Z,23.78
2023-05-04T10:44:29.338Z,23.59
2023-05-04T10:45:36.829Z,23.60
2023-05-04T10:46:39.170Z,23.73
2023-05-04T10:47:41.812Z,23.82
2023-05-04T10:48:44.223Z,23.76
2023-05-04T10:49:46.961Z,23.66
2023-05-04T10:50:51.132Z,24.15
2023-05-04T10:52:16.417Z,24.36
2023-05-04T10:53:19.062Z,23.89
2023-05-04T10:54:21.435Z,24.13
2023-05-04T10:55:26.248Z,24.16
2023-05-04T10:56:28.907Z,24.11
2023-05-04T10:57:34.596Z,24.20
2023-05-04T10:58:36.920Z,24.04
2023-05-04T10:59:40.681Z,24.09
2023-05-04T11:00:46.305Z,24.14
2023-05-04T11:01:49.036Z,23.76
2023-05-04T11:03:03.031Z,24.08
2023-05-04T11:04:06.750Z,23.45
2023-05-04T11:05:09.770Z,23.63
2023-05-04T11:06:25.335Z,24.22
2023-05-04T11:07:40.040Z,24.08
2023-05-04T11:08:43.539Z,24.09
2023-05-04T11:09:46.177Z,23.99
2023-05-04T11:11:01.473Z,23.61
2023-05-04T11:12:04.205Z,23.65
2023-05-04T11:13:14.766Z,23.73
2023-05-04T11:14:27.981Z,24.07
2023-05-04T11:15:31.982Z,23.80
2023-05-04T11:16:34.358Z,24.07
2023-05-04T11:17:50.102Z,24.33
2023-05-04T11:18:53.824Z,24.17
2023-05-04T11:19:56.357Z,24.42
2023-05-04T11:20:59.007Z,24.27
2023-05-04T11:22:04.709Z,23.90
2023-05-04T11:23:10.584Z,23.77
2023-05-04T11:24:13.841Z,23.69
2023-05-04T11:25:17.344Z,23.53
2023-05-04T11:26:20.309Z,23.34
2023-05-04T11:27:29.287Z,23.13
2023-05-04T11:28:36.861Z,23.15
2023-05-04T11:29:39.162Z,23.12
2023-05-04T11:30:42.501Z,23.44
2023-05-04T11:31:54.354Z,23.78
2023-05-04T11:32:57.683Z,23.92
2023-05-04T11:34:01.508Z,23.51
2023-05-04T11:35:05.840Z,24.05
2023-05-04T11:36:09.232Z,23.67
2023-05-04T11:37:13.706Z,24.13
2023-05-04T11:38:22.019Z,24.01
2023-05-04T11:39:25.700Z,24.09
2023-05-04T11:40:28.120Z,24.50
2023-05-04T11:41:30.386Z,23.96
2023-05-04T11:42:32.947Z,24.03
2023-05-04T11:43:38.279Z,24.15
2023-05-04T11:44:41.031Z,24.40
2023-05-04T11:45:44.129Z,24.50
2023-05-04T11:46:48.093Z,24.04
2023-05-04T11:47:52.564Z,24.39
2023-05-04T11:48:55.012Z,24.33
2023-05-04T11:49:57.358Z,24.10
2023-05-04T11:50:59.886Z,24.20
2023-05-04T11:52:09.762Z,24.18
2023-05-04T11:53:13.788Z,24.10
2023-05-04T11:54:26.673Z,24.28
2023-05-04T11:55:30.770Z,24.51
2023-05-04T11:56:41.601Z,24.59
2023-05-04T11:57:43.889Z,24.17
2023-05-04T11:58:46.430Z,24.41
2023-05-04T11:59:49.518Z,24.37
2023-05-04T12:00:58.087Z,24.58
2023-05-04T12:02:00.462Z,24.62
2023-05-04T12:03:03.346Z,24.75
2023-05-04T12:04:06.033Z,24.78
2023-05-04T12:05:15.318Z,24.73
2023-05-04T12:06:17.728Z,24.61
2023-05-04T12:07:20.118Z,24.51
2023-05-04T12:08:26.505Z,24.36
2023-05-04T12:09:29.184Z,24.22
2023-05-04T12:10:33.694Z,24.10
2023-05-04T12:11:38.598Z,23.96
2023-05-04T12:12:40.967Z,23.84
2023-05-04T12:13:45.670Z,24.15
2023-05-04T12:14:58.562Z,24.60
2023-05-04T12:16:11.021Z,24.55
2023-05-04T12:17:13.309Z,23.62
2023-05-04T12:18:23.179Z,24.44
2023-05-04T12:19:25.508Z,24.25
2023-05-04T12:20:29.471Z,24.34
2023-05-04T12:21:32.911Z,24.97
2023-05-04T12:22:36.191Z,24.45
2023-05-04T12:23:39.649Z,24.74
2023-05-04T12:24:41.980Z,24.78
2023-05-04T12:25:57.480Z,24.47
2023-05-04T12:27:01.012Z,24.53
2023-05-04T12:28:03.486Z,24.57
2023-05-04T12:29:05.875Z,24.67
2023-05-04T12:30:09.120Z,24.68
2023-05-04T12:31:12.653Z,24.81
2023-05-04T12:32:15.065Z,24.50
2023-05-04T12:33:17.393Z,24.53
2023-05-04T12:34:19.736Z,24.77
2023-05-04T12:35:22.143Z,24.33
2023-05-04T12:36:24.822Z,24.40
2023-05-04T12:37:27.139Z,24.12
2023-05-04T12:38:29.937Z,24.17
2023-05-04T12:39:33.375Z,24.35
2023-05-04T12:40:36.593Z,24.38
2023-05-04T12:41:39.148Z,24.45
2023-05-04T12:42:42.570Z,24.49
2023-05-04T12:43:45.213Z,24.32
2023-05-04T12:44:47.681Z,24.17
2023-05-04T12:45:51.449Z,24.29
2023-05-04T12:46:58.290Z,24.16
2023-05-04T12:48:00.714Z,24.41
2023-05-04T12:49:03.163Z,23.80
2023-05-04T12:50:06.450Z,24.13
2023-05-04T12:51:08.788Z,24.13
2023-05-04T12:52:11.274Z,24.06
2023-05-04T12:53:13.678Z,24.12
2023-05-04T12:54:16.205Z,23.81
2023-05-04T12:55:20.264Z,24.01
2023-05-04T12:56:22.523Z,24.09
2023-05-04T12:57:24.815Z,24.18
2023-05-04T12:58:28.048Z,24.01
2023-05-04T12:59:33.048Z,24.20
2023-05-04T13:00:36.665Z,24.41
2023-05-04T13:01:41.073Z,24.50
2023-05-04T13:02:44.618Z,24.15
2023-05-04T13:03:47.200Z,23.61
2023-05-04T13:04:49.817Z,23.79
2023-05-04T13:05:52.535Z,23.70
2023-05-04T13:06:54.804Z,23.92
2023-05-04T13:07:57.652Z,23.99
2023-05-04T13:09:02.030Z,24.02
2023-05-04T13:10:04.459Z,24.08
2023-05-04T13:11:06.956Z,24.04
2023-05-04T13:12:09.927Z,23.99
2023-05-04T13:13:13.678Z,23.98
2023-05-04T13:14:16.061Z,24.01
2023-05-04T13:15:18.536Z,23.93
2023-05-04T13:16:20.874Z,23.57
2023-05-04T13:17:23.308Z,23.55
2023-05-04T13:18:27.784Z,23.69
2023-05-04T13:19:30.251Z,23.71
2023-05-04T13:20:32.553Z,23.21
2023-05-04T13:21:35.095Z,22.99
2023-05-04T13:22:37.696Z,23.03
2023-05-04T13:23:43.591Z,23.13
2023-05-04T13:24:45.842Z,23.24
2023-05-04T13:25:50.525Z,23.13
2023-05-04T13:26:52.841Z,23.48
2023-05-04T13:27:57.882Z,23.15
2023-05-04T13:29:00.263Z,23.49
2023-05-04T13:30:03.997Z,23.30
2023-05-04T13:31:06.619Z,23.63
2023-05-04T13:32:09.129Z,23.30
2023-05-04T13:33:28.039Z,23.30
2023-05-04T13:34:32.051Z,23.34
2023-05-04T13:35:34.397Z,22.75
2023-05-04T13:36:36.716Z,22.81
2023-05-04T13:37:38.987Z,23.29
2023-05-04T13:38:41.393Z,23.38
2023-05-04T13:39:44.670Z,23.48
2023-05-04T13:40:48.125Z,23.21
2023-05-04T13:41:50.615Z,23.19
2023-05-04T13:42:53.136Z,23.12
2023-05-04T13:43:55.613Z,23.26
2023-05-04T13:44:57.977Z,23.45